Latest Weather Observations for Williamtown

IDN60801

Issued at 2:03 pm EDT Saturday 21 October 2017 (issued every 30 minutes, with the page automatically refreshed every 10 minutes)

About weather observations | Map of weather stations | Latest weather observations for NSW | Other Formats
Station Details ID: 061078 Name: WILLIAMTOWN RAAF Lat: -32.79 Lon: 151.84 Height: 7.5 m
Data from the previous 72 hours. | See also: Recent months at Williamtown
Date/Time
EDT
Temp
°C
App
Temp
°C
Dew
Point
°C
Rel
Hum
%
Delta-T
°C
Wind Press
QNH
hPa
Press
MSL
hPa
Rain since
9am
mm
Dir  Spd
km/h
Gust
km/h
Spd
kts
Gust
kts
21/02:00pm 18.8 12.9 12.3 66 3.6 SSW 35 48 19 26 1018.9 1018.8 0.4
21/01:30pm 18.6 13.2 10.9 61 4.2 S 30 39 16 21 1019.3 1019.2 0.4
21/01:00pm 19.0 13.1 10.3 57 4.7 SSW 32 39 17 21 1019.7 1019.6 0.4
21/12:30pm 18.7 12.9 11.5 63 3.9 SSW 33 43 18 23 1019.8 1019.7 0.4
21/12:00pm 17.6 12.5 11.9 69 3.1 SSW 30 52 16 28 1020.4 1020.3 0.4
21/11:58am 18.1 13.2 12.5 70 3.1 SSW 30 52 16 28 1020.4 1020.3 0.4
21/11:30am 15.7 12.7 11.9 78 2.1 SSW 19 30 10 16 1020.8 1020.7 0.4
21/11:11am 15.3 13.3 12.8 85 1.4 SSW 15 20 8 11 1021.0 1020.9 0.4
21/11:00am 14.3 12.9 12.3 88 1.1 S 11 19 6 10 1021.1 1021.0 0.4
21/10:44am 14.4 13.4 12.3 87 1.1 SSW 9 15 5 8 1021.3 1021.2 0.0
21/10:30am 14.3 12.6 12.3 88 1.1 SW 13 19 7 10 1021.1 1021.0 0.0
21/10:12am 14.0 10.9 12.2 89 1.0 SSW 20 28 11 15 1021.3 1021.2 0.0
21/10:00am 13.7 10.5 11.8 88 1.0 SSW 20 28 11 15 1021.5 1021.4 0.0
21/09:59am 13.9 10.7 11.8 87 1.1 SSW 20 32 11 17 1021.5 1021.4 0.0
21/09:30am 15.2 11.0 11.0 76 2.2 SSW 24 35 13 19 1021.2 1021.1 0.0
21/09:00am 15.1 11.5 11.9 81 1.7 SSW 22 32 12 17 1021.2 1021.1 21.4
21/08:30am 15.4 12.9 12.2 81 1.7 SSW 17 26 9 14 1021.1 1021.0 21.4
21/08:00am 15.7 11.4 10.9 73 2.5 SSE 24 33 13 18 1020.9 1020.8 21.2
21/07:30am 16.3 11.7 9.5 64 3.5 S 24 32 13 17 1020.7 1020.6 21.2
21/07:00am 16.3 11.5 8.8 61 3.8 S 24 33 13 18 1020.3 1020.2 21.2
21/06:30am 15.9 11.6 7.9 59 4.0 SSW 20 33 11 18 1020.9 1020.8 21.2
21/06:00am 16.3 11.2 7.8 57 4.3 S 24 33 13 18 1020.6 1020.5 21.2
21/05:30am 16.2 10.1 8.2 59 4.0 S 30 39 16 21 1020.3 1020.2 21.2
21/05:00am 16.0 10.9 9.2 64 3.5 S 26 37 14 20 1020.3 1020.2 21.2
21/04:30am 16.1 10.6 9.3 64 3.5 S 28 35 15 19 1020.5 1020.4 21.2
21/04:00am 16.3 12.2 10.2 67 3.2 S 22 33 12 18 1020.6 1020.5 21.2
21/03:30am 16.1 11.6 10.2 68 3.1 SSE 24 33 13 18 1020.4 1020.3 21.2
21/03:00am 15.5 11.9 11.7 78 2.0 S 22 33 12 18 1021.0 1020.9 21.2
21/02:30am 15.0 12.8 12.0 82 1.6 S 15 24 8 13 1021.8 1021.7 21.2
21/02:00am 15.0 12.3 12.9 87 1.2 SSW 19 32 10 17 1022.2 1022.1 21.0
21/01:30am 14.9 9.1 12.8 87 1.2 SSE 35 48 19 26 1021.8 1021.7 21.0
21/01:23am 15.6 11.0 12.4 81 1.8 S 28 48 15 26 1021.7 1021.6 21.0
21/01:00am 15.9 12.9 12.6 81 1.8 S 20 28 11 15 1022.0 1021.9 21.0
21/12:30am 16.0 10.6 12.7 81 1.8 S 33 46 18 25 1022.1 1022.0 21.0
21/12:07am 15.9 12.2 12.8 82 1.7 S 24 52 13 28 1022.3 1022.2 21.0
21/12:06am 15.9 12.6 12.8 82 1.7 S 22 52 12 28 1022.3 1022.2 21.0
21/12:00am 15.6 13.0 13.1 85 1.4 S 19 30 10 16 1022.5 1022.4 21.0
 
Date/Time
EDT
Temp
°C
App
Temp
°C
Dew
Point
°C
Rel
Hum
%
Delta-T
°C
Wind Press
QNH
hPa
Press
MSL
hPa
Rain since
9am
mm
Dir  Spd
km/h
Gust
km/h
Spd
kts
Gust
kts
20/11:30pm 15.5 12.9 13.7 89 1.0 S 20 32 11 17 1022.4 1022.3 21.0
20/11:00pm 15.6 12.3 14.1 91 0.8 SSE 24 30 13 16 1022.2 1022.1 20.8
20/10:45pm 15.0 11.3 13.9 93 0.6 S 26 35 14 19 1022.4 1022.3 20.8
20/10:30pm 15.1 11.2 14.5 96 0.3 S 28 41 15 22 1022.4 1022.3 20.4
20/10:29pm 15.2 11.4 14.6 96 0.3 S 28 41 15 22 1022.4 1022.3 20.4
20/10:09pm 15.3 11.5 14.7 96 0.3 S 28 43 15 23 1022.3 1022.2 19.4
20/10:06pm 15.3 11.9 14.7 96 0.3 SSE 26 33 14 18 1022.4 1022.3 19.2
20/10:03pm 15.4 12.0 14.8 96 0.3 SSE 26 33 14 18 1022.4 1022.3 19.0
20/10:00pm 15.4 12.0 14.8 96 0.3 SSE 26 33 14 18 1022.4 1022.3 19.0
20/09:30pm 15.7 13.8 15.1 96 0.3 S 19 28 10 15 1022.3 1022.2 18.0
20/09:27pm 15.8 13.9 15.2 96 0.3 S 19 28 10 15 1022.3 1022.2 18.0
20/09:07pm 15.6 12.2 14.8 95 0.5 S 26 33 14 18 1022.3 1022.2 17.4
20/09:00pm 15.6 11.5 14.8 95 0.5 S 30 37 16 20 1022.2 1022.1 17.2
20/08:56pm 15.5 11.3 14.7 95 0.5 S 30 37 16 20 1022.2 1022.1 17.2
20/08:30pm 15.8 12.9 15.0 95 0.5 S 24 37 13 20 1021.8 1021.7 16.2
20/08:01pm 15.6 11.9 15.0 96 0.3 S 28 35 15 19 1021.6 1021.5 15.4
20/08:00pm 15.7 12.0 15.1 96 0.3 S 28 35 15 19 1021.6 1021.5 15.4
20/07:55pm 15.6 11.9 15.0 96 0.3 S 28 37 15 20 1021.5 1021.4 15.2
20/07:51pm 15.7 11.7 15.1 96 0.3 S 30 41 16 22 1021.4 1021.3 15.0
20/07:46pm 15.6 11.5 15.0 96 0.3 S 30 41 16 22 1021.3 1021.2 14.6
20/07:30pm 15.7 11.7 15.1 96 0.3 S 30 37 16 20 1021.2 1021.1 13.6
20/07:29pm 15.7 11.7 15.1 96 0.3 S 30 37 16 20 1021.1 1021.0 13.6
20/07:00pm 15.9 12.2 15.1 95 0.5 S 28 39 15 21 1021.0 1020.9 12.6
20/06:30pm 16.0 11.9 15.0 94 0.6 S 30 37 16 20 1020.6 1020.5 11.6
20/06:01pm 16.1 12.1 15.3 95 0.5 S 30 48 16 26 1020.2 1020.1 10.8
20/06:00pm 16.1 12.1 15.3 95 0.5 S 30 37 16 20 1020.2 1020.1 10.8
20/05:39pm 16.1 11.6 15.3 95 0.5 S 33 44 18 24 1019.8 1019.7 10.2
20/05:30pm 16.1 11.6 15.3 95 0.5 S 33 48 18 26 1019.8 1019.7 10.0
20/05:26pm 16.1 11.8 15.3 95 0.5 S 32 46 17 25 1019.7 1019.6 10.0
20/05:06pm 16.4 12.2 15.8 96 0.4 S 32 48 17 26 1019.3 1019.2 9.6
20/05:00pm 16.5 12.8 15.9 96 0.4 S 30 46 16 25 1019.3 1019.2 9.6
20/04:58pm 16.6 13.3 16.0 96 0.4 S 28 46 15 25 1019.2 1019.1 9.6
20/04:30pm 16.7 13.4 16.1 96 0.4 S 28 37 15 20 1018.9 1018.8 9.4
20/04:23pm 16.8 13.2 16.2 96 0.4 S 30 39 16 21 1018.9 1018.8 9.4
20/04:02pm 16.7 12.7 16.1 96 0.4 S 32 43 17 23 1018.8 1018.7 9.2
20/04:00pm 16.7 13.0 16.1 96 0.4 S 30 43 16 23 1018.8 1018.7 9.2
20/03:30pm 17.0 13.5 16.4 96 0.4 SSW 30 44 16 24 1018.8 1018.7 8.8
20/03:12pm 17.3 14.2 16.5 95 0.5 SSW 28 41 15 22 1018.7 1018.6 8.8
20/03:00pm 17.6 14.6 16.8 95 0.5 SW 28 37 15 20 1018.7 1018.6 8.8
20/02:45pm 17.7 14.7 16.9 95 0.5 SW 28 37 15 20 1018.8 1018.7 8.6
20/02:30pm 18.0 15.2 17.2 95 0.5 SSW 28 39 15 21 1018.8 1018.7 8.0
20/02:00pm 19.1 17.9 18.3 95 0.5 SW 22 30 12 16 1018.6 1018.5 5.4
20/01:30pm 19.4 19.0 18.1 92 0.8 SW 17 26 9 14 1018.6 1018.5 3.0
20/01:00pm 20.4 20.5 19.1 92 0.8 SW 17 20 9 11 1018.6 1018.5 2.2
20/12:30pm 20.5 20.9 19.0 91 0.9 SW 15 19 8 10 1018.7 1018.6 1.6
20/12:00pm 21.0 22.0 19.5 91 1.0 SW 13 17 7 9 1018.7 1018.6 1.0
20/11:30am 20.8 21.4 18.6 87 1.4 WSW 13 17 7 9 1019.1 1019.0 0.6
20/11:00am 20.8 21.6 19.1 90 1.1 SW 13 15 7 8 1019.4 1019.3 0.6
20/10:30am 20.7 21.9 19.0 90 1.1 SW 11 15 6 8 1019.5 1019.4 0.2
20/10:00am 20.3 21.2 18.4 89 1.2 SW 11 13 6 7 1019.7 1019.6 0.2
20/09:30am 19.6 20.8 18.3 92 0.8 W 9 13 5 7 1019.8 1019.7 0.2
20/09:00am 19.1 19.7 17.8 92 0.8 WSW 11 15 6 8 1019.9 1019.8 1.2
20/08:30am 19.0 19.6 17.7 92 0.8 WSW 11 13 6 7 1019.6 1019.5 0.4
20/08:00am 19.1 18.9 16.7 86 1.4 WSW 13 15 7 8 1019.4 1019.3 0.0
20/07:30am 18.9 19.1 15.8 82 1.8 WSW 9 11 5 6 1019.1 1019.0 0.0
20/07:00am 18.5 18.3 15.6 83 1.7 WSW 11 13 6 7 1018.7 1018.6 0.0
20/06:30am 18.0 19.0 15.3 84 1.6 WSW 4 7 2 4 1018.0 1017.9 0.0
20/06:00am 17.8 19.4 14.9 83 1.7 CALM 0 0 0 0 1017.7 1017.6 0.0
20/05:30am 17.7 18.0 15.1 85 1.5 SW 7 13 4 7 1017.3 1017.2 0.0
20/05:00am 17.4 17.9 15.0 86 1.4 W 6 11 3 6 1016.6 1016.5 0.0
20/04:30am 17.6 17.3 14.5 82 1.8 N 9 9 5 5 1016.3 1016.2 0.0
20/04:00am 17.9 18.5 14.2 79 2.1 NNW 4 7 2 4 1016.5 1016.4 0.0
20/03:30am 18.1 17.8 14.4 79 2.1 N 9 13 5 7 1016.4 1016.3 0.0
20/03:00am 18.1 17.7 14.2 78 2.2 N 9 13 5 7 1016.7 1016.6 0.0
20/02:30am 18.3 17.9 14.2 77 2.4 NNE 9 13 5 7 1016.9 1016.8 0.0
20/02:00am 18.1 19.4 14.2 78 2.2 CALM 0 0 0 0 1017.3 1017.2 0.0
20/01:30am 18.5 18.4 14.0 75 2.6 NNE 7 9 4 5 1017.5 1017.4 0.0
20/01:00am 18.9 18.9 14.2 74 2.7 NNE 7 9 4 5 1017.9 1017.8 0.0
20/12:30am 19.2 18.8 14.2 73 2.9 N 9 11 5 6 1018.3 1018.2 0.0
20/12:00am 19.5 19.7 14.1 71 3.1 NNE 6 9 3 5 1018.5 1018.4 0.0
 
Date/Time
EDT
Temp
°C
App
Temp
°C
Dew
Point
°C
Rel
Hum
%
Delta-T
°C
Wind Press
QNH
hPa
Press
MSL
hPa
Rain since
9am
mm
Dir  Spd
km/h
Gust
km/h
Spd
kts
Gust
kts
19/11:30pm 19.7 19.7 14.1 70 3.2 NNE 7 13 4 7 1018.7 1018.6 0.0
19/11:00pm 19.9 18.7 14.0 69 3.4 NE 13 19 7 10 1018.8 1018.7 0.0
19/10:30pm 20.1 19.0 14.2 69 3.4 NE 13 19 7 10 1019.0 1018.9 0.0
19/10:00pm 20.4 18.9 14.1 67 3.6 NNE 15 20 8 11 1019.3 1019.2 0.0
19/09:30pm 20.6 19.1 14.3 67 3.7 NE 15 20 8 11 1019.4 1019.3 0.0
19/09:00pm 20.9 18.7 14.3 66 3.8 NE 19 24 10 13 1019.3 1019.2 0.0
19/08:30pm 21.2 19.1 14.8 67 3.8 NE 19 26 10 14 1019.1 1019.0 0.0
19/08:00pm 21.5 19.4 14.6 65 4.0 NE 19 28 10 15 1019.1 1019.0 0.0
19/07:30pm 22.1 20.0 14.7 63 4.4 NE 19 28 10 15 1019.1 1019.0 0.0
19/07:00pm 22.7 19.7 14.8 61 4.7 ENE 24 32 13 17 1018.8 1018.7 0.0
19/06:30pm 23.9 20.6 14.9 57 5.4 ENE 26 35 14 19 1018.7 1018.6 0.0
19/06:00pm 24.9 21.7 15.2 54 5.8 ENE 26 37 14 20 1018.7 1018.6 0.0
19/05:30pm 26.0 23.1 16.0 54 6.1 ENE 26 39 14 21 1018.7 1018.6 0.0
19/05:00pm 26.0 22.8 15.4 52 6.4 ENE 26 35 14 19 1018.7 1018.6 0.0
19/04:30pm 26.4 23.8 15.8 52 6.5 ENE 24 35 13 19 1018.9 1018.8 0.0
19/04:00pm 26.8 23.9 16.1 52 6.6 ENE 26 33 14 18 1019.2 1019.1 0.0
19/03:30pm 27.5 24.6 15.2 47 7.5 ENE 24 33 13 18 1019.5 1019.4 0.0
19/03:00pm 28.3 27.4 14.9 44 8.1 NNE 13 26 7 14 1020.1 1020.0 0.0
19/02:30pm 28.7 26.8 10.4 32 10.3 N 11 17 6 9 1020.4 1020.3 0.0
19/02:00pm 28.8 26.9 10.5 32 10.3 NNE 11 22 6 12 1021.2 1021.1 0.0
19/01:30pm 28.1 25.5 10.8 34 9.8 NNW 15 26 8 14 1021.9 1021.8 0.0
19/01:00pm 27.5 25.7 10.7 35 9.5 N 11 19 6 10 1022.4 1022.3 0.0
19/12:30pm 26.7 25.0 11.2 38 8.8 N 11 20 6 11 1022.8 1022.7 0.0
19/12:00pm 26.2 24.1 11.2 39 8.5 N 13 19 7 10 1023.5 1023.4 0.0
19/11:30am 25.5 23.2 10.5 39 8.4 NNW 13 22 7 12 1023.9 1023.8 0.0
19/11:00am 25.2 23.2 11.4 42 7.8 N 13 22 7 12 1024.4 1024.3 0.0
19/10:30am 24.7 22.3 12.6 47 7.0 N 17 26 9 14 1024.8 1024.7 0.0
19/10:00am 23.7 20.7 12.7 50 6.3 NNW 20 30 11 16 1025.1 1025.0 0.0
19/09:30am 22.6 19.7 12.3 52 5.8 N 19 26 10 14 1025.4 1025.3 0.0
19/09:00am 21.8 19.4 12.6 56 5.2 N 17 26 9 14 1025.5 1025.4 0.2
19/08:30am 21.3 18.6 13.0 59 4.7 N 19 28 10 15 1025.4 1025.3 0.2
19/08:00am 20.3 17.9 12.8 62 4.2 NNE 17 26 9 14 1025.3 1025.2 0.2
19/07:30am 19.3 17.8 13.0 67 3.6 NE 13 17 7 9 1025.1 1025.0 0.2
19/07:00am 18.1 16.6 13.2 73 2.7 NE 13 17 7 9 1024.9 1024.8 0.2
19/06:30am 17.3 15.9 13.4 78 2.2 NE 13 19 7 10 1024.8 1024.7 0.2
19/06:00am 17.3 15.5 13.2 77 2.3 NE 15 26 8 14 1024.5 1024.4 0.2
19/05:30am 17.7 15.9 13.2 75 2.5 NE 15 22 8 12 1024.1 1024.0 0.2
19/05:00am 17.4 16.4 13.3 77 2.3 NE 11 20 6 11 1024.1 1024.0 0.2
19/04:30am 17.2 15.1 13.5 79 2.1 NE 17 22 9 12 1023.9 1023.8 0.2
19/04:00am 17.4 16.4 13.3 77 2.3 NE 11 15 6 8 1024.5 1024.4 0.2
19/03:30am 17.8 16.8 13.5 76 2.4 NNE 11 15 6 8 1024.7 1024.6 0.2
19/03:00am 18.0 16.8 13.9 77 2.3 NE 13 20 7 11 1024.9 1024.8 0.2
19/02:30am 18.0 16.5 14.1 78 2.2 NE 15 22 8 12 1025.1 1025.0 0.2
19/02:00am 17.8 16.6 13.9 78 2.2 NE 13 19 7 10 1025.4 1025.3 0.2
19/01:30am 17.7 16.6 14.2 80 2.0 NE 13 17 7 9 1025.8 1025.7 0.2
19/01:00am 17.9 17.5 14.2 79 2.1 NE 9 13 5 7 1026.3 1026.2 0.2
19/12:30am 18.1 16.9 14.0 77 2.3 NE 13 20 7 11 1026.5 1026.4 0.2
19/12:00am 18.3 17.1 14.0 76 2.4 NE 13 19 7 10 1026.5 1026.4 0.2
 
Date/Time
EDT
Temp
°C
App
Temp
°C
Dew
Point
°C
Rel
Hum
%
Delta-T
°C
Wind Press
QNH
hPa
Press
MSL
hPa
Rain since
9am
mm
Dir  Spd
km/h
Gust
km/h
Spd
kts
Gust
kts
18/11:30pm 18.8 17.3 14.1 74 2.7 NE 15 19 8 10 1026.7 1026.6 0.2
18/11:00pm 18.8 17.2 13.9 73 2.8 NE 15 24 8 13 1026.8 1026.7 0.2
18/10:30pm 18.9 16.8 13.5 71 3.1 NE 17 28 9 15 1026.8 1026.7 0.2
18/10:00pm 19.0 17.2 13.4 70 3.2 NE 15 24 8 13 1026.9 1026.8 0.2
18/09:30pm 19.3 17.2 13.7 70 3.2 NE 17 28 9 15 1026.6 1026.5 0.2
18/09:00pm 19.6 17.0 13.8 69 3.3 NE 20 30 11 16 1026.5 1026.4 0.2
18/08:30pm 19.8 17.0 14.2 70 3.2 NE 22 32 12 17 1026.2 1026.1 0.2
18/08:00pm 20.0 16.2 14.6 71 3.1 ENE 28 43 15 23 1025.8 1025.7 0.2
18/07:30pm 20.4 16.5 14.5 69 3.4 NE 28 44 15 24 1025.2 1025.1 0.2
18/07:00pm 20.9 17.3 14.3 66 3.8 ENE 26 41 14 22 1025.2 1025.1 0.2
18/06:30pm 21.6 17.3 14.5 64 4.2 ENE 30 43 16 23 1024.9 1024.8 0.2
18/06:00pm 21.9 17.2 14.8 64 4.2 ENE 33 44 18 24 1024.7 1024.6 0.2
18/05:30pm 22.4 17.7 14.3 60 4.7 ENE 32 44 17 24 1024.7 1024.6 0.2
18/05:03pm 22.9 18.3 14.5 59 5.0 ENE 32 50 17 27 1024.5 1024.4 0.2
18/05:00pm 22.7 17.8 14.3 59 4.9 ENE 33 50 18 27 1024.5 1024.4 0.2
18/04:30pm 23.0 17.6 13.8 56 5.4 ENE 35 50 19 27 1024.4 1024.3 0.2
18/04:00pm 23.9 19.0 13.7 53 5.9 ENE 32 48 17 26 1024.5 1024.4 0.2
18/03:42pm 23.5 18.6 13.7 54 5.7 ENE 32 50 17 27 1024.6 1024.5 0.2
18/03:30pm 23.4 17.9 13.6 54 5.7 ENE 35 46 19 25 1024.5 1024.4 0.2
18/03:00pm 25.0 19.9 13.2 48 6.8 ENE 32 44 17 24 1024.9 1024.8 0.2
18/02:30pm 25.0 21.1 14.5 52 6.2 NE 28 41 15 22 1025.0 1024.9 0.2

Other Formats:

Comma delimited format used in spreadsheet applications
http://www.bom.gov.au/fwo/IDN60801/IDN60801.94776.axf

JavaScript Object Notation format (JSON) in row-major order
http://www.bom.gov.au/fwo/IDN60801/IDN60801.94776.json